createdAt,value
2023-05-03T00:01:18.911Z,96251.00
2023-05-03T00:05:21.795Z,96249.00
2023-05-03T00:09:24.650Z,96249.00
2023-05-03T00:13:28.905Z,96245.00
2023-05-03T00:17:31.708Z,96244.00
2023-05-03T00:21:34.536Z,96247.00
2023-05-03T00:25:37.341Z,96235.00
2023-05-03T00:29:41.503Z,96237.00
2023-05-03T00:33:44.312Z,96237.00
2023-05-03T00:37:47.168Z,96233.00
2023-05-03T00:41:50.000Z,96230.00
2023-05-03T00:46:04.589Z,96229.00
2023-05-03T00:50:15.726Z,96217.00
2023-05-03T00:54:18.797Z,96219.00
2023-05-03T00:58:22.117Z,96222.00
2023-05-03T01:02:26.772Z,96208.00
2023-05-03T01:06:39.236Z,96208.00
2023-05-03T01:10:49.598Z,96208.00
2023-05-03T01:15:06.603Z,96207.00
2023-05-03T01:19:27.749Z,96219.00
2023-05-03T01:23:37.405Z,96210.00
2023-05-03T01:27:42.480Z,96200.00
2023-05-03T01:31:53.854Z,96218.00
2023-05-03T01:36:03.316Z,96208.00
2023-05-03T01:40:09.949Z,96203.00
2023-05-03T01:44:14.895Z,96196.00
2023-05-03T01:48:19.500Z,96193.00
2023-05-03T01:52:22.512Z,96194.00
2023-05-03T01:56:26.284Z,96191.00
2023-05-03T02:00:31.451Z,96201.00
2023-05-03T02:04:34.297Z,96201.00
2023-05-03T02:08:37.151Z,96214.00
2023-05-03T02:12:40.232Z,96219.00
2023-05-03T02:16:44.559Z,96215.00
2023-05-03T02:20:47.659Z,96212.00
2023-05-03T02:24:50.469Z,96220.00
2023-05-03T02:28:53.283Z,96218.00
2023-05-03T02:32:57.501Z,96234.00
2023-05-03T02:37:00.507Z,96228.00
2023-05-03T02:41:03.604Z,96219.00
2023-05-03T02:45:08.101Z,96219.00
2023-05-03T02:49:12.525Z,96213.00
2023-05-03T02:53:15.433Z,96212.00
2023-05-03T02:57:18.237Z,96222.00
2023-05-03T03:01:21.544Z,96216.00
2023-05-03T03:05:26.004Z,96230.00
2023-05-03T03:09:28.855Z,96212.00
2023-05-03T03:13:32.221Z,96208.00
2023-05-03T03:17:38.872Z,96209.00
2023-05-03T03:21:45.669Z,96210.00
2023-05-03T03:25:48.439Z,96217.00
2023-05-03T03:29:52.155Z,96219.00
2023-05-03T03:33:54.931Z,96209.00
2023-05-03T03:38:01.127Z,96211.00
2023-05-03T03:42:04.202Z,96210.00
2023-05-03T03:46:07.572Z,96217.00
2023-05-03T03:50:11.502Z,96216.00
2023-05-03T03:54:16.400Z,96219.00
2023-05-03T03:58:25.306Z,96216.00
2023-05-03T04:02:29.225Z,96228.00
2023-05-03T04:06:33.057Z,96228.00
2023-05-03T04:10:41.633Z,96236.00
2023-05-03T04:14:44.897Z,96229.00
2023-05-03T04:18:47.849Z,96230.00
2023-05-03T04:22:50.780Z,96245.00
2023-05-03T04:26:58.825Z,96246.00
2023-05-03T04:31:05.317Z,96238.00
2023-05-03T04:35:12.419Z,96249.00
2023-05-03T04:39:20.009Z,96253.00
2023-05-03T04:43:25.601Z,96257.00
2023-05-03T04:47:28.556Z,96258.00
2023-05-03T04:51:31.905Z,96257.00
2023-05-03T04:55:35.337Z,96263.00
2023-05-03T04:59:41.787Z,96267.00
2023-05-03T05:03:45.308Z,96253.00
2023-05-03T05:07:54.316Z,96271.00
2023-05-03T05:11:57.770Z,96264.00
2023-05-03T05:16:07.144Z,96271.00
2023-05-03T05:20:12.562Z,96280.00
2023-05-03T05:24:19.829Z,96272.00
2023-05-03T05:28:22.686Z,96284.00
2023-05-03T05:32:27.237Z,96289.00
2023-05-03T05:36:31.704Z,96287.00
2023-05-03T05:40:35.796Z,96291.00
2023-05-03T05:44:38.682Z,96302.00
2023-05-03T05:48:43.447Z,96295.00
2023-05-03T05:52:47.198Z,96299.00
2023-05-03T05:56:50.938Z,96304.00
2023-05-03T06:00:59.126Z,96304.00
2023-05-03T06:05:05.522Z,96297.00
2023-05-03T06:09:20.828Z,96311.00
2023-05-03T06:13:28.448Z,96307.00
2023-05-03T06:17:32.622Z,96313.00
2023-05-03T06:21:36.934Z,96315.00
2023-05-03T06:25:40.005Z,96314.00
2023-05-03T06:29:44.358Z,96312.00
2023-05-03T06:33:47.719Z,96319.00
2023-05-03T06:37:52.723Z,96316.00
2023-05-03T06:41:56.626Z,96328.00
2023-05-03T06:46:08.293Z,96334.00
2023-05-03T06:50:11.929Z,96328.00
2023-05-03T06:54:16.147Z,96330.00
2023-05-03T06:58:18.976Z,96337.00
2023-05-03T07:02:21.777Z,96339.00
2023-05-03T07:06:24.680Z,96325.00
2023-05-03T07:10:31.297Z,96324.00
2023-05-03T07:14:34.513Z,96329.00
2023-05-03T07:18:37.340Z,96325.00
2023-05-03T07:22:40.104Z,96317.00
2023-05-03T07:26:44.729Z,96318.00
2023-05-03T07:30:48.715Z,96324.00
2023-05-03T07:34:52.092Z,96330.00
2023-05-03T07:38:56.789Z,96330.00
2023-05-03T07:43:03.162Z,96331.00
2023-05-03T07:47:05.963Z,96332.00
2023-05-03T07:51:08.785Z,96324.00
2023-05-03T07:55:11.631Z,96328.00
2023-05-03T07:59:15.780Z,96326.00
2023-05-03T08:03:18.796Z,96322.00
2023-05-03T08:07:21.775Z,96316.00
2023-05-03T08:11:24.527Z,96323.00
2023-05-03T08:15:29.679Z,96323.00
2023-05-03T08:19:32.547Z,96318.00
2023-05-03T08:23:35.518Z,96324.00
2023-05-03T08:27:38.993Z,96321.00
2023-05-03T08:31:43.268Z,96322.00
2023-05-03T08:35:48.083Z,96317.00
2023-05-03T08:39:52.266Z,96313.00
2023-05-03T08:43:56.030Z,96316.00
2023-05-03T08:48:02.277Z,96310.00
2023-05-03T08:52:07.648Z,96307.00
2023-05-03T08:56:12.443Z,96312.00
2023-05-03T09:00:15.987Z,96319.00
2023-05-03T09:04:20.224Z,96331.00
2023-05-03T09:08:23.804Z,96330.00
2023-05-03T09:12:36.049Z,96335.00
2023-05-03T09:16:40.646Z,96327.00
2023-05-03T09:20:52.635Z,96339.00
2023-05-03T09:24:58.399Z,96331.00
2023-05-03T09:29:02.703Z,96339.00
2023-05-03T09:33:05.898Z,96336.00
2023-05-03T09:37:10.499Z,96321.00
2023-05-03T09:41:13.544Z,96325.00
2023-05-03T09:45:24.943Z,96325.00
2023-05-03T09:49:27.911Z,96322.00
2023-05-03T09:53:32.904Z,96320.00
2023-05-03T09:57:35.856Z,96311.00
2023-05-03T10:01:39.153Z,96321.00
2023-05-03T10:05:47.720Z,96327.00
2023-05-03T10:09:51.936Z,96323.00
2023-05-03T10:13:55.006Z,96326.00
2023-05-03T10:18:00.747Z,96320.00
2023-05-03T10:22:07.705Z,96323.00
2023-05-03T10:26:16.553Z,96318.00
2023-05-03T10:30:38.149Z,96324.00
2023-05-03T10:34:43.430Z,96320.00
2023-05-03T10:38:47.340Z,96320.00
2023-05-03T10:42:53.426Z,96323.00
2023-05-03T10:46:56.072Z,96326.00
2023-05-03T10:51:19.545Z,96327.00
2023-05-03T10:55:24.745Z,96322.00
2023-05-03T10:59:47.589Z,96321.00
2023-05-03T11:03:55.980Z,96323.00
2023-05-03T11:08:09.833Z,96317.00
2023-05-03T11:12:12.557Z,96326.00
2023-05-03T11:16:16.828Z,96312.00
2023-05-03T11:20:20.763Z,96314.00
2023-05-03T11:24:23.810Z,96311.00
2023-05-03T11:28:27.000Z,96314.00
2023-05-03T11:32:31.444Z,96315.00
2023-05-03T11:36:34.363Z,96304.00
2023-05-03T11:40:39.536Z,96302.00
2023-05-03T11:44:42.417Z,96309.00
2023-05-03T11:48:46.650Z,96302.00
2023-05-03T11:52:49.588Z,96310.00
2023-05-03T11:56:56.474Z,96304.00
2023-05-03T12:00:59.291Z,96312.00
2023-05-03T12:05:03.820Z,96299.00
2023-05-03T12:09:15.701Z,96296.00
2023-05-03T12:13:30.036Z,96301.00
2023-05-03T12:17:39.220Z,96303.00
2023-05-03T12:21:59.349Z,96299.00
2023-05-03T12:26:10.460Z,96291.00
2023-05-03T12:30:17.510Z,96294.00
2023-05-03T12:34:33.596Z,96296.00
2023-05-03T12:38:42.292Z,96282.00
2023-05-03T12:42:46.816Z,96292.00
2023-05-03T12:51:00.605Z,96279.00
2023-05-03T12:55:24.692Z,96293.00
2023-05-03T12:59:41.353Z,96282.00
2023-05-03T13:03:58.347Z,96281.00
2023-05-03T13:08:09.985Z,96283.00
2023-05-03T13:12:15.606Z,96272.00
2023-05-03T13:16:19.542Z,96268.00
2023-05-03T13:20:22.608Z,96261.00
2023-05-03T13:24:26.080Z,96264.00
2023-05-03T13:28:30.568Z,96258.00
2023-05-03T13:32:34.223Z,96258.00
2023-05-03T13:36:37.315Z,96260.00
2023-05-03T13:40:40.067Z,96242.00
2023-05-03T13:44:46.440Z,96245.00
2023-05-03T13:48:49.246Z,96242.00
2023-05-03T13:52:52.035Z,96239.00
2023-05-03T13:56:54.843Z,96240.00
2023-05-03T14:00:59.426Z,96233.00
2023-05-03T14:05:02.742Z,96239.00
2023-05-03T14:09:06.392Z,96231.00
2023-05-03T14:13:09.347Z,96232.00
2023-05-03T14:17:13.606Z,96234.00
2023-05-03T14:21:18.453Z,96233.00
2023-05-03T14:25:21.500Z,96220.00
2023-05-03T14:29:24.340Z,96221.00
2023-05-03T14:33:28.497Z,96222.00
2023-05-03T14:37:31.869Z,96211.00
2023-05-03T14:41:34.846Z,96208.00
2023-05-03T14:45:37.655Z,96212.00
2023-05-03T14:49:41.790Z,96199.00
2023-05-03T14:53:44.576Z,96203.00
2023-05-03T14:57:47.422Z,96201.00
2023-05-03T15:01:53.424Z,96185.00
2023-05-03T15:05:57.590Z,96189.00
2023-05-03T15:10:03.652Z,96187.00
2023-05-03T15:14:07.209Z,96188.00
2023-05-03T15:18:11.078Z,96184.00
2023-05-03T15:22:16.061Z,96181.00
2023-05-03T15:26:18.892Z,96193.00
2023-05-03T15:30:21.731Z,96186.00
2023-05-03T15:34:24.497Z,96190.00
2023-05-03T15:38:28.652Z,96183.00
2023-05-03T15:42:31.616Z,96186.00
2023-05-03T15:46:35.290Z,96178.00
2023-05-03T15:50:38.269Z,96179.00
2023-05-03T15:54:42.432Z,96175.00
2023-05-03T15:58:45.431Z,96174.00
2023-05-03T16:02:48.395Z,96180.00
2023-05-03T16:06:51.214Z,96184.00
2023-05-03T16:10:55.438Z,96183.00
2023-05-03T16:14:58.234Z,96189.00
2023-05-03T16:19:01.049Z,96186.00
2023-05-03T16:23:04.142Z,96180.00
2023-05-03T16:27:08.366Z,96185.00
2023-05-03T16:31:11.177Z,96183.00
2023-05-03T16:35:13.934Z,96180.00
2023-05-03T16:39:16.710Z,96180.00
2023-05-03T16:43:20.868Z,96172.00
2023-05-03T16:47:23.667Z,96178.00
2023-05-03T16:51:27.849Z,96177.00
2023-05-03T16:55:30.800Z,96183.00
2023-05-03T16:59:34.939Z,96182.00
2023-05-03T17:03:37.798Z,96180.00
2023-05-03T17:07:42.067Z,96175.00
2023-05-03T17:11:44.913Z,96175.00
2023-05-03T17:15:49.124Z,96167.00
2023-05-03T17:19:52.239Z,96175.00
2023-05-03T17:23:55.026Z,96174.00
2023-05-03T17:27:58.077Z,96171.00
2023-05-03T17:32:02.299Z,96166.00
2023-05-03T17:36:05.662Z,96177.00
2023-05-03T17:40:09.473Z,96175.00
2023-05-03T17:44:12.400Z,96176.00
2023-05-03T17:48:16.702Z,96171.00
2023-05-03T17:52:19.502Z,96169.00
2023-05-03T17:56:22.579Z,96170.00
2023-05-03T18:00:27.417Z,96176.00
2023-05-03T18:04:31.569Z,96180.00
2023-05-03T18:08:34.366Z,96182.00
2023-05-03T18:12:37.220Z,96171.00
2023-05-03T18:16:40.212Z,96171.00
2023-05-03T18:20:44.342Z,96181.00
2023-05-03T18:24:47.130Z,96177.00
2023-05-03T18:28:51.068Z,96166.00
2023-05-03T18:32:55.636Z,96179.00
2023-05-03T18:36:59.966Z,96183.00
2023-05-03T18:41:02.822Z,96183.00
2023-05-03T18:45:06.151Z,96192.00
2023-05-03T18:49:09.882Z,96193.00
2023-05-03T18:53:14.611Z,96204.00
2023-05-03T18:57:18.699Z,96210.00
2023-05-03T19:01:21.557Z,96195.00
2023-05-03T19:05:24.441Z,96212.00
2023-05-03T19:09:28.780Z,96208.00
2023-05-03T19:13:31.605Z,96209.00
2023-05-03T19:17:34.423Z,96208.00
2023-05-03T19:21:39.246Z,96214.00
2023-05-03T19:25:43.424Z,96213.00
2023-05-03T19:29:46.241Z,96217.00
2023-05-03T19:33:49.013Z,96214.00
2023-05-03T19:37:51.859Z,96219.00
2023-05-03T19:41:56.540Z,96216.00
2023-05-03T19:45:59.293Z,96214.00
2023-05-03T19:50:02.423Z,96215.00
2023-05-03T19:54:05.568Z,96205.00
2023-05-03T19:58:09.828Z,96212.00
2023-05-03T20:02:12.600Z,96212.00
2023-05-03T20:06:15.432Z,96211.00
2023-05-03T20:10:18.681Z,96212.00
2023-05-03T20:14:22.856Z,96217.00
2023-05-03T20:18:25.678Z,96219.00
2023-05-03T20:22:28.463Z,96220.00
2023-05-03T20:26:31.305Z,96217.00
2023-05-03T20:30:35.552Z,96215.00
2023-05-03T20:34:40.103Z,96215.00
2023-05-03T20:38:42.888Z,96209.00
2023-05-03T20:42:45.906Z,96210.00
2023-05-03T20:46:50.119Z,96206.00
2023-05-03T20:50:52.937Z,96215.00
2023-05-03T20:54:55.771Z,96202.00
2023-05-03T20:58:58.583Z,96208.00
2023-05-03T21:03:03.482Z,96215.00
2023-05-03T21:07:06.650Z,96206.00
2023-05-03T21:11:09.474Z,96208.00
2023-05-03T21:15:13.038Z,96195.00
2023-05-03T21:19:17.253Z,96192.00
2023-05-03T21:23:20.324Z,96196.00
2023-05-03T21:27:23.138Z,96190.00
2023-05-03T21:31:26.103Z,96190.00
2023-05-03T21:35:30.343Z,96180.00
2023-05-03T21:39:33.434Z,96171.00
2023-05-03T21:43:36.829Z,96168.00
2023-05-03T21:47:39.620Z,96170.00
2023-05-03T21:51:44.961Z,96165.00
2023-05-03T21:55:48.248Z,96179.00
2023-05-03T21:59:51.154Z,96162.00
2023-05-03T22:03:54.045Z,96170.00
2023-05-03T22:07:58.317Z,96165.00
2023-05-03T22:12:05.935Z,96159.00
2023-05-03T22:16:15.061Z,96161.00
2023-05-03T22:20:17.855Z,96159.00
2023-05-03T22:24:22.384Z,96155.00
2023-05-03T22:28:25.273Z,96146.00
2023-05-03T22:32:28.085Z,96148.00
2023-05-03T22:36:30.890Z,96144.00
2023-05-03T22:40:35.185Z,96147.00
2023-05-03T22:44:38.176Z,96152.00
2023-05-03T22:48:40.946Z,96153.00
2023-05-03T22:52:43.774Z,96152.00
2023-05-03T22:56:47.914Z,96143.00
2023-05-03T23:00:50.725Z,96138.00
2023-05-03T23:04:53.645Z,96147.00
2023-05-03T23:08:56.391Z,96143.00
2023-05-03T23:13:00.616Z,96143.00
2023-05-03T23:17:03.523Z,96144.00
2023-05-03T23:21:06.404Z,96129.00
2023-05-03T23:25:10.672Z,96138.00
2023-05-03T23:29:14.872Z,96128.00
2023-05-03T23:33:18.295Z,96123.00
2023-05-03T23:37:21.427Z,96128.00
2023-05-03T23:41:24.252Z,96121.00
2023-05-03T23:45:28.414Z,96123.00
2023-05-03T23:49:31.200Z,96117.00
2023-05-03T23:53:33.987Z,96112.00
2023-05-03T23:57:36.979Z,96110.00
